sensor_id;sensor_type;location;lat;lon;timestamp;pressure;altitude;pressure_sealevel;temperature;humidity
58239;BME280;44037;55.638;37.356;2022-08-25T00:00:47;100249.63;;;21.45;45.38
58239;BME280;44037;55.638;37.356;2022-08-25T00:03:15;100243.28;;;21.52;45.09
58239;BME280;44037;55.638;37.356;2022-08-25T00:05:44;100244.88;;;21.59;45.30
58239;BME280;44037;55.638;37.356;2022-08-25T00:08:11;100247.38;;;21.66;44.91
58239;BME280;44037;55.638;37.356;2022-08-25T00:10:38;100241.06;;;21.70;44.85
58239;BME280;44037;55.638;37.356;2022-08-25T00:13:07;100242.88;;;21.69;44.91
58239;BME280;44037;55.638;37.356;2022-08-25T00:15:35;100244.84;;;21.61;44.65
58239;BME280;44037;55.638;37.356;2022-08-25T00:18:03;100243.38;;;21.49;44.78
58239;BME280;44037;55.638;37.356;2022-08-25T00:20:31;100249.84;;;21.36;45.30
58239;BME280;44037;55.638;37.356;2022-08-25T00:22:59;100244.84;;;21.25;45.43
58239;BME280;44037;55.638;37.356;2022-08-25T00:25:26;100250.25;;;21.20;46.30
58239;BME280;44037;55.638;37.356;2022-08-25T00:27:53;100245.66;;;21.28;46.13
58239;BME280;44037;55.638;37.356;2022-08-25T00:30:20;100242.78;;;21.38;45.86
58239;BME280;44037;55.638;37.356;2022-08-25T00:32:47;100246.00;;;21.49;45.89
58239;BME280;44037;55.638;37.356;2022-08-25T00:35:15;100248.47;;;21.55;45.46
58239;BME280;44037;55.638;37.356;2022-08-25T00:37:42;100243.09;;;21.58;45.22
58239;BME280;44037;55.638;37.356;2022-08-25T00:40:11;100244.91;;;21.56;45.13
58239;BME280;44037;55.638;37.356;2022-08-25T00:42:38;100240.81;;;21.46;45.05
58239;BME280;44037;55.638;37.356;2022-08-25T00:45:07;100243.75;;;21.33;45.46
58239;BME280;44037;55.638;37.356;2022-08-25T00:47:34;100242.28;;;21.23;45.69
58239;BME280;44037;55.638;37.356;2022-08-25T00:50:06;100245.16;;;21.14;46.20
58239;BME280;44037;55.638;37.356;2022-08-25T00:52:37;100242.50;;;21.14;46.53
58239;BME280;44037;55.638;37.356;2022-08-25T00:55:08;100242.31;;;21.22;46.55
58239;BME280;44037;55.638;37.356;2022-08-25T00:57:42;100241.25;;;21.29;46.46
58239;BME280;44037;55.638;37.356;2022-08-25T01:00:13;100242.03;;;21.32;46.55
58239;BME280;44037;55.638;37.356;2022-08-25T01:02:41;100241.09;;;21.35;46.30
58239;BME280;44037;55.638;37.356;2022-08-25T01:05:08;100240.28;;;21.31;45.86
58239;BME280;44037;55.638;37.356;2022-08-25T01:07:35;100241.38;;;21.24;46.21
58239;BME280;44037;55.638;37.356;2022-08-25T01:10:04;100227.59;;;21.13;46.23
58239;BME280;44037;55.638;37.356;2022-08-25T01:12:32;100238.38;;;21.04;46.42
58239;BME280;44037;55.638;37.356;2022-08-25T01:15:01;100239.41;;;20.98;47.18
58239;BME280;44037;55.638;37.356;2022-08-25T01:17:33;100237.50;;;21.03;47.31
58239;BME280;44037;55.638;37.356;2022-08-25T01:20:00;100233.78;;;21.12;47.15
58239;BME280;44037;55.638;37.356;2022-08-25T01:22:30;100229.16;;;21.20;46.77
58239;BME280;44037;55.638;37.356;2022-08-25T01:25:01;100236.94;;;21.26;47.12
58239;BME280;44037;55.638;37.356;2022-08-25T01:27:29;100236.88;;;21.28;46.63
58239;BME280;44037;55.638;37.356;2022-08-25T01:29:56;100227.31;;;21.24;46.44
58239;BME280;44037;55.638;37.356;2022-08-25T01:32:23;100234.59;;;21.14;46.65
58239;BME280;44037;55.638;37.356;2022-08-25T01:34:50;100228.75;;;21.02;46.92
58239;BME280;44037;55.638;37.356;2022-08-25T01:37:17;100233.31;;;20.94;47.14
58239;BME280;44037;55.638;37.356;2022-08-25T01:39:46;100233.47;;;20.88;47.40
58239;BME280;44037;55.638;37.356;2022-08-25T01:42:22;100229.06;;;20.90;47.63
58239;BME280;44037;55.638;37.356;2022-08-25T01:44:50;100228.06;;;20.94;47.77
58239;BME280;44037;55.638;37.356;2022-08-25T01:47:17;100227.97;;;20.97;47.72
58239;BME280;44037;55.638;37.356;2022-08-25T01:49:44;100235.81;;;21.00;47.26
58239;BME280;44037;55.638;37.356;2022-08-25T01:52:15;100234.97;;;20.98;47.46
58239;BME280;44037;55.638;37.356;2022-08-25T01:54:46;100237.84;;;20.89;47.32
58239;BME280;44037;55.638;37.356;2022-08-25T01:57:13;100236.28;;;20.80;47.48
58239;BME280;44037;55.638;37.356;2022-08-25T01:59:41;100247.03;;;20.71;47.84
58239;BME280;44037;55.638;37.356;2022-08-25T02:02:09;100242.66;;;20.68;48.65
58239;BME280;44037;55.638;37.356;2022-08-25T02:04:37;100243.44;;;20.74;48.20
58239;BME280;44037;55.638;37.356;2022-08-25T02:07:05;100240.78;;;20.77;48.08
58239;BME280;44037;55.638;37.356;2022-08-25T02:09:34;100239.75;;;20.82;47.89
58239;BME280;44037;55.638;37.356;2022-08-25T02:12:03;100244.09;;;20.85;47.72
58239;BME280;44037;55.638;37.356;2022-08-25T02:14:30;100245.03;;;20.81;47.70
58239;BME280;44037;55.638;37.356;2022-08-25T02:16:57;100241.72;;;20.72;47.81
58239;BME280;44037;55.638;37.356;2022-08-25T02:19:25;100246.28;;;20.64;48.13
58239;BME280;44037;55.638;37.356;2022-08-25T02:21:52;100249.94;;;20.57;48.12
58239;BME280;44037;55.638;37.356;2022-08-25T02:24:19;100243.84;;;20.55;48.67
58239;BME280;44037;55.638;37.356;2022-08-25T02:26:47;100248.09;;;20.61;48.61
58239;BME280;44037;55.638;37.356;2022-08-25T02:29:16;100243.56;;;20.67;48.51
58239;BME280;44037;55.638;37.356;2022-08-25T02:31:43;100247.03;;;20.71;48.34
58239;BME280;44037;55.638;37.356;2022-08-25T02:34:10;100241.66;;;20.74;48.11
58239;BME280;44037;55.638;37.356;2022-08-25T02:36:39;100242.66;;;20.70;47.83
58239;BME280;44037;55.638;37.356;2022-08-25T02:39:07;100238.34;;;20.66;47.82
58239;BME280;44037;55.638;37.356;2022-08-25T02:41:36;100233.16;;;20.63;48.08
58239;BME280;44037;55.638;37.356;2022-08-25T02:44:05;100246.34;;;20.61;48.64
58239;BME280;44037;55.638;37.356;2022-08-25T02:46:35;100237.44;;;20.67;48.86
58239;BME280;44037;55.638;37.356;2022-08-25T02:49:03;100239.03;;;20.76;47.94
58239;BME280;44037;55.638;37.356;2022-08-25T02:51:30;100236.13;;;20.88;48.44
58239;BME280;44037;55.638;37.356;2022-08-25T02:53:59;100232.41;;;20.95;48.20
58239;BME280;44037;55.638;37.356;2022-08-25T02:56:27;100233.19;;;21.00;48.07
58239;BME280;44037;55.638;37.356;2022-08-25T02:58:54;100229.53;;;21.05;47.59
58239;BME280;44037;55.638;37.356;2022-08-25T03:01:22;100229.53;;;21.06;47.63
58239;BME280;44037;55.638;37.356;2022-08-25T03:03:50;100234.75;;;21.08;47.55
58239;BME280;44037;55.638;37.356;2022-08-25T03:06:20;100232.09;;;21.09;47.54
58239;BME280;44037;55.638;37.356;2022-08-25T03:08:48;100225.88;;;21.12;47.45
58239;BME280;44037;55.638;37.356;2022-08-25T03:11:16;100231.06;;;21.15;47.89
58239;BME280;44037;55.638;37.356;2022-08-25T03:13:43;100232.63;;;21.22;47.79
58239;BME280;44037;55.638;37.356;2022-08-25T03:16:11;100236.03;;;21.27;48.03
58239;BME280;44037;55.638;37.356;2022-08-25T03:18:38;100227.94;;;21.33;47.82
58239;BME280;44037;55.638;37.356;2022-08-25T03:21:08;100232.25;;;21.38;47.77
58239;BME280;44037;55.638;37.356;2022-08-25T03:23:36;100231.28;;;21.42;47.87
58239;BME280;44037;55.638;37.356;2022-08-25T03:26:03;100231.94;;;21.48;47.66
58239;BME280;44037;55.638;37.356;2022-08-25T03:28:47;100232.63;;;21.57;47.33
58239;BME280;44037;55.638;37.356;2022-08-25T03:31:14;100233.34;;;21.63;47.03
58239;BME280;44037;55.638;37.356;2022-08-25T03:33:41;100231.44;;;21.69;46.71
58239;BME280;44037;55.638;37.356;2022-08-25T03:36:10;100230.44;;;21.73;46.63
58239;BME280;44037;55.638;37.356;2022-08-25T03:38:38;100227.69;;;21.77;46.90
58239;BME280;44037;55.638;37.356;2022-08-25T03:41:13;100225.94;;;21.78;47.05
58239;BME280;44037;55.638;37.356;2022-08-25T03:43:41;100225.09;;;21.76;47.04
58239;BME280;44037;55.638;37.356;2022-08-25T03:46:09;100227.75;;;21.76;47.29
58239;BME280;44037;55.638;37.356;2022-08-25T03:48:41;100226.00;;;21.75;47.48
58239;BME280;44037;55.638;37.356;2022-08-25T03:51:10;100219.84;;;21.74;47.41
58239;BME280;44037;55.638;37.356;2022-08-25T03:53:38;100218.03;;;21.78;47.45
58239;BME280;44037;55.638;37.356;2022-08-25T03:56:05;100224.69;;;21.90;47.00
58239;BME280;44037;55.638;37.356;2022-08-25T03:58:32;100214.63;;;22.04;46.70
58239;BME280;44037;55.638;37.356;2022-08-25T04:00:59;100225.56;;;22.20;46.54
58239;BME280;44037;55.638;37.356;2022-08-25T04:03:26;100217.28;;;22.33;46.24
58239;BME280;44037;55.638;37.356;2022-08-25T04:05:53;100217.06;;;22.40;46.47
58239;BME280;44037;55.638;37.356;2022-08-25T04:08:21;100210.03;;;22.39;46.59
58239;BME280;44037;55.638;37.356;2022-08-25T04:10:49;100211.84;;;22.39;47.20
58239;BME280;44037;55.638;37.356;2022-08-25T04:13:16;100217.97;;;22.39;47.08
58239;BME280;44037;55.638;37.356;2022-08-25T04:15:44;100213.56;;;22.40;47.32
58239;BME280;44037;55.638;37.356;2022-08-25T04:18:11;100207.41;;;22.41;47.16
58239;BME280;44037;55.638;37.356;2022-08-25T04:20:39;100206.28;;;22.48;47.04
58239;BME280;44037;55.638;37.356;2022-08-25T04:23:06;100206.00;;;22.58;46.62
58239;BME280;44037;55.638;37.356;2022-08-25T04:25:39;100201.28;;;22.67;46.55
58239;BME280;44037;55.638;37.356;2022-08-25T04:28:07;100194.09;;;22.73;46.66
58239;BME280;44037;55.638;37.356;2022-08-25T04:30:34;100199.31;;;22.74;46.80
58239;BME280;44037;55.638;37.356;2022-08-25T04:33:02;100196.63;;;22.76;46.68
58239;BME280;44037;55.638;37.356;2022-08-25T04:35:29;100197.34;;;22.81;46.63
58239;BME280;44037;55.638;37.356;2022-08-25T04:37:56;100194.34;;;22.92;46.77
58239;BME280;44037;55.638;37.356;2022-08-25T04:40:24;100199.09;;;23.07;46.38
58239;BME280;44037;55.638;37.356;2022-08-25T04:42:52;100188.03;;;23.23;46.09
58239;BME280;44037;55.638;37.356;2022-08-25T04:45:19;100189.41;;;23.35;46.10
58239;BME280;44037;55.638;37.356;2022-08-25T04:47:46;100191.00;;;23.39;46.36
58239;BME280;44037;55.638;37.356;2022-08-25T04:50:16;100188.31;;;23.40;46.06
58239;BME280;44037;55.638;37.356;2022-08-25T04:52:43;100183.84;;;23.42;46.44
58239;BME280;44037;55.638;37.356;2022-08-25T04:55:11;100188.97;;;23.47;46.16
58239;BME280;44037;55.638;37.356;2022-08-25T04:57:38;100189.63;;;23.54;45.94
58239;BME280;44037;55.638;37.356;2022-08-25T05:00:07;100193.09;;;23.54;45.87
58239;BME280;44037;55.638;37.356;2022-08-25T05:02:34;100184.78;;;23.65;46.07
58239;BME280;44037;55.638;37.356;2022-08-25T05:05:02;100192.16;;;23.81;45.80
58239;BME280;44037;55.638;37.356;2022-08-25T05:07:29;100186.31;;;23.96;45.16
58239;BME280;44037;55.638;37.356;2022-08-25T05:09:56;100184.38;;;24.01;45.18
58239;BME280;44037;55.638;37.356;2022-08-25T05:12:23;100187.00;;;24.01;45.43
58239;BME280;44037;55.638;37.356;2022-08-25T05:14:51;100181.53;;;24.06;45.62
58239;BME280;44037;55.638;37.356;2022-08-25T05:17:20;100183.09;;;24.12;45.05
58239;BME280;44037;55.638;37.356;2022-08-25T05:19:47;100181.19;;;24.15;44.60
58239;BME280;44037;55.638;37.356;2022-08-25T05:22:14;100182.72;;;24.21;44.78
58239;BME280;44037;55.638;37.356;2022-08-25T05:24:41;100182.50;;;24.27;44.54
58239;BME280;44037;55.638;37.356;2022-08-25T05:27:08;100178.56;;;24.37;44.42
58239;BME280;44037;55.638;37.356;2022-08-25T05:29:35;100174.41;;;24.52;44.08
58239;BME280;44037;55.638;37.356;2022-08-25T05:32:03;100175.47;;;24.71;43.41
58239;BME280;44037;55.638;37.356;2022-08-25T05:34:31;100175.72;;;24.87;42.27
58239;BME280;44037;55.638;37.356;2022-08-25T05:36:58;100173.88;;;24.89;42.52
58239;BME280;44037;55.638;37.356;2022-08-25T05:39:27;100169.56;;;24.86;42.32
58239;BME280;44037;55.638;37.356;2022-08-25T05:41:56;100172.16;;;24.88;42.81
58239;BME280;44037;55.638;37.356;2022-08-25T05:44:23;100168.59;;;24.89;42.42
58239;BME280;44037;55.638;37.356;2022-08-25T05:46:51;100168.31;;;24.95;42.42
58239;BME280;44037;55.638;37.356;2022-08-25T05:49:18;100161.88;;;25.00;42.33
58239;BME280;44037;55.638;37.356;2022-08-25T05:51:47;100160.50;;;25.12;41.72
58239;BME280;44037;55.638;37.356;2022-08-25T05:54:14;100160.03;;;25.23;42.12
58239;BME280;44037;55.638;37.356;2022-08-25T05:56:41;100161.34;;;25.34;42.18
58239;BME280;44037;55.638;37.356;2022-08-25T05:59:09;100167.09;;;25.45;42.06
58239;BME280;44037;55.638;37.356;2022-08-25T06:01:36;100159.50;;;25.56;41.81
58239;BME280;44037;55.638;37.356;2022-08-25T06:04:21;100164.25;;;25.69;42.06
58239;BME280;44037;55.638;37.356;2022-08-25T06:06:50;100172.28;;;25.86;42.00
58239;BME280;44037;55.638;37.356;2022-08-25T06:09:19;100175.88;;;26.04;41.72
58239;BME280;44037;55.638;37.356;2022-08-25T06:11:47;100168.84;;;26.22;40.84
58239;BME280;44037;55.638;37.356;2022-08-25T06:14:14;100165.91;;;26.29;40.57
58239;BME280;44037;55.638;37.356;2022-08-25T06:16:41;100164.13;;;26.29;40.34
58239;BME280;44037;55.638;37.356;2022-08-25T06:19:09;100166.72;;;26.31;40.13
58239;BME280;44037;55.638;37.356;2022-08-25T06:21:36;100166.63;;;26.32;40.50
58239;BME280;44037;55.638;37.356;2022-08-25T06:24:07;100170.00;;;26.36;40.83
58239;BME280;44037;55.638;37.356;2022-08-25T06:26:34;100164.41;;;26.42;40.80
58239;BME280;44037;55.638;37.356;2022-08-25T06:29:02;100157.00;;;26.49;39.73
58239;BME280;44037;55.638;37.356;2022-08-25T06:31:29;100153.88;;;26.58;39.34
58239;BME280;44037;55.638;37.356;2022-08-25T06:33:56;100160.59;;;26.65;38.73
58239;BME280;44037;55.638;37.356;2022-08-25T06:36:23;100159.59;;;26.68;38.11
58239;BME280;44037;55.638;37.356;2022-08-25T06:38:51;100154.88;;;26.73;37.78
58239;BME280;44037;55.638;37.356;2022-08-25T06:41:19;100158.06;;;26.81;38.33
58239;BME280;44037;55.638;37.356;2022-08-25T06:43:46;100152.38;;;26.89;37.59
58239;BME280;44037;55.638;37.356;2022-08-25T06:46:15;100148.34;;;26.98;37.10
58239;BME280;44037;55.638;37.356;2022-08-25T06:48:43;100145.25;;;27.07;36.65
58239;BME280;44037;55.638;37.356;2022-08-25T06:51:13;100143.88;;;27.16;36.31
58239;BME280;44037;55.638;37.356;2022-08-25T06:53:40;100140.81;;;27.24;36.04
58239;BME280;44037;55.638;37.356;2022-08-25T06:56:08;100143.97;;;27.32;36.15
58239;BME280;44037;55.638;37.356;2022-08-25T06:58:37;100145.44;;;27.38;36.98
58239;BME280;44037;55.638;37.356;2022-08-25T07:01:09;100138.81;;;27.47;35.72
58239;BME280;44037;55.638;37.356;2022-08-25T07:03:37;100143.00;;;27.51;35.31
58239;BME280;44037;55.638;37.356;2022-08-25T07:06:05;100143.47;;;27.59;35.98
58239;BME280;44037;55.638;37.356;2022-08-25T07:08:32;100133.09;;;27.70;35.49
58239;BME280;44037;55.638;37.356;2022-08-25T07:11:05;100137.53;;;27.86;35.62
58239;BME280;44037;55.638;37.356;2022-08-25T07:13:32;100137.91;;;27.96;35.18
58239;BME280;44037;55.638;37.356;2022-08-25T07:16:01;100138.56;;;27.99;34.78
58239;BME280;44037;55.638;37.356;2022-08-25T07:18:28;100134.13;;;28.00;34.93
58239;BME280;44037;55.638;37.356;2022-08-25T07:20:55;100144.69;;;28.01;35.08
58239;BME280;44037;55.638;37.356;2022-08-25T07:23:23;100139.19;;;28.04;34.80
58239;BME280;44037;55.638;37.356;2022-08-25T07:25:51;100135.50;;;28.07;34.25
58239;BME280;44037;55.638;37.356;2022-08-25T07:28:19;100138.69;;;28.14;34.01
58239;BME280;44037;55.638;37.356;2022-08-25T07:30:48;100131.31;;;28.19;33.76
58239;BME280;44037;55.638;37.356;2022-08-25T07:33:16;100132.78;;;28.25;34.15
58239;BME280;44037;55.638;37.356;2022-08-25T07:35:43;100132.50;;;28.29;34.42
58239;BME280;44037;55.638;37.356;2022-08-25T07:38:10;100128.63;;;28.35;34.78
58239;BME280;44037;55.638;37.356;2022-08-25T07:40:37;100130.97;;;28.41;34.85
58239;BME280;44037;55.638;37.356;2022-08-25T07:43:06;100126.03;;;28.49;33.97
58239;BME280;44037;55.638;37.356;2022-08-25T07:45:35;100126.53;;;28.56;33.55
58239;BME280;44037;55.638;37.356;2022-08-25T07:48:06;100128.94;;;28.61;33.49
58239;BME280;44037;55.638;37.356;2022-08-25T07:50:36;100124.09;;;28.67;33.09
58239;BME280;44037;55.638;37.356;2022-08-25T07:53:04;100119.28;;;28.74;32.85
58239;BME280;44037;55.638;37.356;2022-08-25T07:55:32;100121.50;;;28.82;33.26
58239;BME280;44037;55.638;37.356;2022-08-25T07:58:01;100114.66;;;28.92;33.05
58239;BME280;44037;55.638;37.356;2022-08-25T08:00:28;100112.47;;;28.99;32.40
58239;BME280;44037;55.638;37.356;2022-08-25T08:03:01;100103.44;;;29.02;32.15
58239;BME280;44037;55.638;37.356;2022-08-25T08:05:28;100110.97;;;29.09;32.21
58239;BME280;44037;55.638;37.356;2022-08-25T08:07:57;100107.06;;;29.15;31.81
58239;BME280;44037;55.638;37.356;2022-08-25T08:10:24;100101.66;;;29.17;31.66
58239;BME280;44037;55.638;37.356;2022-08-25T08:12:52;100101.44;;;29.20;31.57
58239;BME280;44037;55.638;37.356;2022-08-25T08:15:19;100101.25;;;29.23;31.20
58239;BME280;44037;55.638;37.356;2022-08-25T08:17:47;100095.75;;;29.26;30.89
58239;BME280;44037;55.638;37.356;2022-08-25T08:20:15;100097.34;;;29.28;31.32
58239;BME280;44037;55.638;37.356;2022-08-25T08:22:42;100096.16;;;29.34;30.92
58239;BME280;44037;55.638;37.356;2022-08-25T08:25:12;100094.34;;;29.35;30.81
58239;BME280;44037;55.638;37.356;2022-08-25T08:27:39;100078.22;;;29.36;30.16
58239;BME280;44037;55.638;37.356;2022-08-25T08:30:08;100086.13;;;29.38;30.70
58239;BME280;44037;55.638;37.356;2022-08-25T08:32:35;100084.16;;;29.41;30.42
58239;BME280;44037;55.638;37.356;2022-08-25T08:35:03;100078.81;;;29.41;30.63
58239;BME280;44037;55.638;37.356;2022-08-25T08:37:31;100077.75;;;29.44;30.87
58239;BME280;44037;55.638;37.356;2022-08-25T08:39:59;100078.41;;;29.48;30.66
58239;BME280;44037;55.638;37.356;2022-08-25T08:42:52;100085.19;;;29.53;30.82
58239;BME280;44037;55.638;37.356;2022-08-25T08:45:29;100077.63;;;29.60;30.82
58239;BME280;44037;55.638;37.356;2022-08-25T08:50:55;100070.66;;;29.72;30.37
58239;BME280;44037;55.638;37.356;2022-08-25T08:53:36;100073.69;;;29.80;30.57
58239;BME280;44037;55.638;37.356;2022-08-25T08:56:09;100066.25;;;29.85;30.56
58239;BME280;44037;55.638;37.356;2022-08-25T08:58:42;100065.94;;;29.90;29.95
58239;BME280;44037;55.638;37.356;2022-08-25T09:01:12;100071.94;;;29.94;29.76
58239;BME280;44037;55.638;37.356;2022-08-25T09:03:45;100059.38;;;29.96;29.05
58239;BME280;44037;55.638;37.356;2022-08-25T09:06:17;100068.03;;;29.99;28.92
58239;BME280;44037;55.638;37.356;2022-08-25T09:08:46;100058.97;;;30.02;29.60
58239;BME280;44037;55.638;37.356;2022-08-25T09:11:21;100058.75;;;30.05;28.64
58239;BME280;44037;55.638;37.356;2022-08-25T09:14:13;100053.97;;;30.10;28.76
58239;BME280;44037;55.638;37.356;2022-08-25T09:16:51;100050.13;;;30.14;28.57
58239;BME280;44037;55.638;37.356;2022-08-25T09:19:32;100049.19;;;30.15;27.47
58239;BME280;44037;55.638;37.356;2022-08-25T09:22:10;100050.13;;;30.14;26.50
58239;BME280;44037;55.638;37.356;2022-08-25T09:24:48;100054.31;;;30.18;26.21
58239;BME280;44037;55.638;37.356;2022-08-25T09:27:26;100048.34;;;30.28;25.95
58239;BME280;44037;55.638;37.356;2022-08-25T09:30:05;100046.78;;;30.38;27.81
58239;BME280;44037;55.638;37.356;2022-08-25T09:32:36;100040.47;;;30.39;27.74
58239;BME280;44037;55.638;37.356;2022-08-25T09:35:05;100041.97;;;30.43;27.44
58239;BME280;44037;55.638;37.356;2022-08-25T09:37:33;100033.22;;;30.41;27.42
58239;BME280;44037;55.638;37.356;2022-08-25T09:40:01;100037.25;;;30.34;27.34
58239;BME280;44037;55.638;37.356;2022-08-25T09:42:49;100026.16;;;30.40;28.19
58239;BME280;44037;55.638;37.356;2022-08-25T09:45:31;100036.97;;;30.52;27.96
58239;BME280;44037;55.638;37.356;2022-08-25T09:47:59;100033.47;;;30.64;27.57
58239;BME280;44037;55.638;37.356;2022-08-25T09:50:30;100024.19;;;30.57;27.48
58239;BME280;44037;55.638;37.356;2022-08-25T09:53:11;100025.00;;;30.44;27.65
58239;BME280;44037;55.638;37.356;2022-08-25T09:55:40;100019.75;;;30.43;27.71
58239;BME280;44037;55.638;37.356;2022-08-25T09:58:18;100026.13;;;30.27;27.69
58239;BME280;44037;55.638;37.356;2022-08-25T10:01:00;100026.75;;;30.18;27.59
58239;BME280;44037;55.638;37.356;2022-08-25T10:03:28;100022.59;;;30.27;27.69
58239;BME280;44037;55.638;37.356;2022-08-25T10:06:02;100031.03;;;30.21;27.27
58239;BME280;44037;55.638;37.356;2022-08-25T10:08:33;100017.06;;;30.30;27.29
58239;BME280;44037;55.638;37.356;2022-08-25T10:11:02;100019.13;;;30.52;27.16
58239;BME280;44037;55.638;37.356;2022-08-25T10:13:36;100011.03;;;30.67;26.50
58239;BME280;44037;55.638;37.356;2022-08-25T10:16:09;100010.50;;;30.74;25.94
58239;BME280;44037;55.638;37.356;2022-08-25T10:18:39;100012.09;;;30.77;25.75
58239;BME280;44037;55.638;37.356;2022-08-25T10:21:10;100003.44;;;30.86;25.86
58239;BME280;44037;55.638;37.356;2022-08-25T10:23:47;100002.88;;;31.07;25.98
58239;BME280;44037;55.638;37.356;2022-08-25T10:26:23;100007.13;;;31.35;25.78
58239;BME280;44037;55.638;37.356;2022-08-25T10:29:02;100004.19;;;31.51;25.85
58239;BME280;44037;55.638;37.356;2022-08-25T10:31:35;100009.09;;;31.58;25.77
58239;BME280;44037;55.638;37.356;2022-08-25T10:34:21;99996.97;;;31.65;25.41
58239;BME280;44037;55.638;37.356;2022-08-25T10:36:57;99997.19;;;31.75;24.58
58239;BME280;44037;55.638;37.356;2022-08-25T10:39:36;100005.50;;;31.83;25.34
58239;BME280;44037;55.638;37.356;2022-08-25T10:42:19;99990.44;;;31.93;25.54
58239;BME280;44037;55.638;37.356;2022-08-25T10:44:55;99986.22;;;32.02;25.44
58239;BME280;44037;55.638;37.356;2022-08-25T10:48:01;99987.56;;;32.08;24.94
58239;BME280;44037;55.638;37.356;2022-08-25T10:50:39;99980.28;;;32.10;25.22
58239;BME280;44037;55.638;37.356;2022-08-25T10:53:25;99971.66;;;32.17;25.08
58239;BME280;44037;55.638;37.356;2022-08-25T10:56:02;99980.94;;;32.25;24.92
58239;BME280;44037;55.638;37.356;2022-08-25T10:58:45;99972.13;;;32.11;25.30
58239;BME280;44037;55.638;37.356;2022-08-25T11:01:25;99975.69;;;32.23;24.77
58239;BME280;44037;55.638;37.356;2022-08-25T11:03:58;99979.78;;;32.40;25.01
58239;BME280;44037;55.638;37.356;2022-08-25T11:06:35;99973.22;;;32.44;24.40
58239;BME280;44037;55.638;37.356;2022-08-25T11:09:07;99956.75;;;32.38;24.74
58239;BME280;44037;55.638;37.356;2022-08-25T11:11:36;99958.31;;;32.29;24.79
58239;BME280;44037;55.638;37.356;2022-08-25T11:14:08;99947.63;;;32.16;25.21
58239;BME280;44037;55.638;37.356;2022-08-25T11:16:39;99942.38;;;32.03;25.38
58239;BME280;44037;55.638;37.356;2022-08-25T11:19:18;99947.13;;;31.99;25.32
58239;BME280;44037;55.638;37.356;2022-08-25T11:21:50;99951.53;;;32.00;24.99
58239;BME280;44037;55.638;37.356;2022-08-25T11:24:30;99950.28;;;32.05;24.56
58239;BME280;44037;55.638;37.356;2022-08-25T11:26:59;99953.50;;;32.10;24.70
58239;BME280;44037;55.638;37.356;2022-08-25T11:29:32;99945.94;;;32.15;24.68
58239;BME280;44037;55.638;37.356;2022-08-25T11:32:02;99942.28;;;32.16;24.40
58239;BME280;44037;55.638;37.356;2022-08-25T11:34:32;99936.63;;;31.96;24.37
58239;BME280;44037;55.638;37.356;2022-08-25T11:37:06;99944.25;;;31.78;24.35
58239;BME280;44037;55.638;37.356;2022-08-25T11:39:51;99938.06;;;31.65;24.72
58239;BME280;44037;55.638;37.356;2022-08-25T11:42:32;99932.03;;;31.50;24.93
58239;BME280;44037;55.638;37.356;2022-08-25T11:45:10;99929.25;;;31.51;24.60
58239;BME280;44037;55.638;37.356;2022-08-25T11:47:57;99925.06;;;31.47;24.81
58239;BME280;44037;55.638;37.356;2022-08-25T11:50:33;99924.69;;;31.40;24.71
58239;BME280;44037;55.638;37.356;2022-08-25T11:53:17;99923.31;;;31.35;25.03
58239;BME280;44037;55.638;37.356;2022-08-25T11:55:47;99919.78;;;31.34;24.86
58239;BME280;44037;55.638;37.356;2022-08-25T11:58:38;99916.66;;;31.40;25.42
58239;BME280;44037;55.638;37.356;2022-08-25T12:01:09;99912.22;;;31.52;25.63
58239;BME280;44037;55.638;37.356;2022-08-25T12:03:50;99917.50;;;31.65;25.85
58239;BME280;44037;55.638;37.356;2022-08-25T12:06:24;99912.72;;;31.82;24.41
58239;BME280;44037;55.638;37.356;2022-08-25T12:11:51;99909.53;;;32.12;24.19
58239;BME280;44037;55.638;37.356;2022-08-25T12:14:40;99900.81;;;32.33;23.91
58239;BME280;44037;55.638;37.356;2022-08-25T12:17:23;99905.84;;;32.49;23.89
58239;BME280;44037;55.638;37.356;2022-08-25T12:19:54;99901.69;;;32.56;24.06
58239;BME280;44037;55.638;37.356;2022-08-25T12:22:52;99899.00;;;32.56;23.81
58239;BME280;44037;55.638;37.356;2022-08-25T12:25:36;99900.94;;;32.54;24.10
58239;BME280;44037;55.638;37.356;2022-08-25T12:28:16;99898.63;;;32.50;23.74
58239;BME280;44037;55.638;37.356;2022-08-25T12:30:53;99891.69;;;32.36;24.15
58239;BME280;44037;55.638;37.356;2022-08-25T12:33:31;99894.06;;;32.16;24.92
58239;BME280;44037;55.638;37.356;2022-08-25T12:36:05;99895.00;;;32.04;24.71
58239;BME280;44037;55.638;37.356;2022-08-25T12:38:39;99894.53;;;31.98;24.33
58239;BME280;44037;55.638;37.356;2022-08-25T12:41:10;99899.88;;;31.98;24.48
58239;BME280;44037;55.638;37.356;2022-08-25T12:43:39;99893.28;;;32.02;24.18
58239;BME280;44037;55.638;37.356;2022-08-25T12:46:33;99889.19;;;32.10;24.52
58239;BME280;44037;55.638;37.356;2022-08-25T12:49:02;99878.84;;;32.16;24.21
58239;BME280;44037;55.638;37.356;2022-08-25T12:51:50;99877.59;;;32.09;24.07
58239;BME280;44037;55.638;37.356;2022-08-25T12:54:36;99883.69;;;32.00;24.22
58239;BME280;44037;55.638;37.356;2022-08-25T12:57:22;99878.16;;;31.90;24.55
58239;BME280;44037;55.638;37.356;2022-08-25T12:59:53;99880.22;;;31.86;24.63
58239;BME280;44037;55.638;37.356;2022-08-25T13:02:39;99874.63;;;31.78;24.68
58239;BME280;44037;55.638;37.356;2022-08-25T13:08:40;99866.00;;;31.62;24.65
58239;BME280;44037;55.638;37.356;2022-08-25T13:11:16;99870.97;;;31.55;24.66